Time;durP1;ratioP1;P1;durP2;ratioP2;P2;SDS_P1;SDS_P2;PMS_P1;PMS_P2;Temp;Humidity;BMP_temperature;BMP_pressure;BME280_temperature;BME280_humidity;BME280_pressure;Samples;Min_cycle;Max_cycle;Signal;HPM_P1;HPM_P2
2023/12/08 00:00:54;;;;;;;7.70;2.95;;;36.20;52.30;;;;;;5071929;28;20183;-73
2023/12/08 00:03:21;;;;;;;10.55;2.80;;;35.70;50.00;;;;;;5072466;28;20187;-74
2023/12/08 00:05:48;;;;;;;5.88;2.22;;;35.50;54.30;;;;;;5072457;28;20236;-74
2023/12/08 00:08:16;;;;;;;11.95;2.63;;;35.60;51.90;;;;;;5072146;28;20175;-75
2023/12/08 00:10:43;;;;;;;3.33;1.90;;;36.30;51.00;;;;;;5073170;28;20300;-74
2023/12/08 00:13:11;;;;;;;7.55;1.92;;;37.10;48.80;;;;;;5072208;28;20657;-75
2023/12/08 00:15:38;;;;;;;6.28;1.58;;;36.90;42.70;;;;;;5071836;28;20180;-72
2023/12/08 00:18:05;;;;;;;5.68;1.40;;;36.90;36.90;;;;;;5071866;28;20172;-73
2023/12/08 00:20:33;;;;;;;4.35;1.48;;;37.20;35.40;;;;;;5072098;28;20210;-74
2023/12/08 00:23:00;;;;;;;4.22;1.80;;;37.80;36.80;;;;;;5070713;28;20183;-73
2023/12/08 00:25:27;;;;;;;7.07;1.35;;;38.30;36.30;;;;;;5071524;28;20207;-73
2023/12/08 00:27:55;;;;;;;7.07;1.23;;;38.30;32.60;;;;;;5072370;28;20168;-74
2023/12/08 00:30:22;;;;;;;3.25;1.30;;;38.30;25.80;;;;;;5072047;28;20580;-73
2023/12/08 00:32:49;;;;;;;4.38;1.45;;;38.10;29.30;;;;;;5071732;28;20180;-71
2023/12/08 00:35:18;;;;;;;2.92;1.30;;;38.70;22.20;;;;;;5071618;28;20207;-74
2023/12/08 00:37:46;;;;;;;3.60;1.08;;;38.80;22.20;;;;;;5072052;28;20695;-73
2023/12/08 00:40:13;;;;;;;9.00;1.60;;;39.00;20.90;;;;;;5071561;28;20199;-71
2023/12/08 00:42:41;;;;;;;7.00;1.58;;;38.80;21.40;;;;;;5072220;28;20180;-74
2023/12/08 00:45:08;;;;;;;4.18;1.20;;;39.10;18.60;;;;;;5070609;28;20187;-73
2023/12/08 00:47:36;;;;;;;3.17;1.35;;;39.30;21.00;;;;;;5071742;28;20176;-73
2023/12/08 00:50:03;;;;;;;3.40;1.20;;;39.50;21.60;;;;;;5071991;28;20311;-74
2023/12/08 00:52:31;;;;;;;4.32;1.30;;;39.20;16.60;;;;;;5072537;28;20590;-74
2023/12/08 00:54:58;;;;;;;4.07;1.40;;;39.50;15.50;;;;;;5072189;28;20210;-73
2023/12/08 00:57:26;;;;;;;6.85;1.60;;;39.60;15.00;;;;;;5072652;28;20179;-75
2023/12/08 00:59:53;;;;;;;7.65;1.00;;;39.40;13.70;;;;;;5071943;28;20262;-73
2023/12/08 01:02:20;;;;;;;5.20;1.27;;;39.10;11.70;;;;;;5071272;28;20278;-72
2023/12/08 01:04:48;;;;;;;6.80;1.10;;;39.50;13.30;;;;;;5070255;28;20184;-73
2023/12/08 01:07:15;;;;;;;4.63;1.10;;;39.20;9.00;;;;;;5071153;28;20179;-73
2023/12/08 01:09:42;;;;;;;6.10;1.55;;;39.50;13.80;;;;;;5071035;28;20649;-74
2023/12/08 01:12:10;;;;;;;2.92;1.10;;;39.50;10.70;;;;;;5071507;28;20175;-74
2023/12/08 01:14:37;;;;;;;2.35;1.20;;;39.60;10.40;;;;;;5071614;28;20179;-76
2023/12/08 01:17:05;;;;;;;7.22;1.30;;;39.70;12.20;;;;;;5070993;28;20195;-73
2023/12/08 01:19:32;;;;;;;4.80;1.40;;;39.80;13.60;;;;;;5053786;28;20241;-73
2023/12/08 01:22:00;;;;;;;6.03;1.15;;;40.10;10.90;;;;;;5071618;28;20509;-74
2023/12/08 01:24:27;;;;;;;3.83;1.02;;;39.90;12.30;;;;;;5071041;28;20207;-72
2023/12/08 01:26:54;;;;;;;6.97;1.15;;;39.90;7.80;;;;;;5071417;28;20665;-74
2023/12/08 01:29:22;;;;;;;3.60;1.00;;;39.90;8.00;;;;;;5069869;28;20239;-74
2023/12/08 01:31:49;;;;;;;5.53;1.30;;;39.80;10.60;;;;;;5073758;28;20210;-73
2023/12/08 01:34:17;;;;;;;3.28;1.15;;;40.20;11.10;;;;;;5075430;28;20610;-73
2023/12/08 01:36:44;;;;;;;3.50;1.17;;;40.40;7.10;;;;;;5075349;28;20229;-74
2023/12/08 01:39:12;;;;;;;3.20;1.10;;;40.50;5.50;;;;;;5075891;28;20171;-74
2023/12/08 01:41:39;;;;;;;4.28;1.30;;;39.90;6.70;;;;;;5075790;28;20183;-77
2023/12/08 01:44:07;;;;;;;1.67;1.02;;;40.00;6.60;;;;;;5075620;28;20183;-74
2023/12/08 01:46:37;;;;;;;5.22;1.30;;;40.10;5.10;;;;;;5089054;28;20864;-74
2023/12/08 01:49:05;;;;;;;4.45;1.52;;;40.10;5.70;;;;;;5076351;28;20720;-74
2023/12/08 01:51:33;;;;;;;8.13;1.67;;;40.30;7.60;;;;;;5074203;28;20211;-73
2023/12/08 01:54:01;;;;;;;4.40;1.30;;;39.70;7.50;;;;;;5075648;28;20175;-74
2023/12/08 01:56:28;;;;;;;5.97;1.52;;;39.80;8.70;;;;;;5075935;28;20241;-75
2023/12/08 01:58:56;;;;;;;3.67;1.60;;;39.90;9.00;;;;;;5075691;28;20168;-76
2023/12/08 02:01:23;;;;;;;3.28;1.40;;;39.70;12.10;;;;;;5072963;28;20184;-72
2023/12/08 02:03:51;;;;;;;4.32;1.50;;;39.60;12.30;;;;;;5074825;28;20176;-74
2023/12/08 02:06:19;;;;;;;2.78;1.27;;;40.00;10.80;;;;;;5074654;28;20195;-76
2023/12/08 02:08:47;;;;;;;4.72;1.33;;;39.80;10.80;;;;;;5074950;28;20192;-74
2023/12/08 02:11:15;;;;;;;3.55;1.08;;;39.40;10.90;;;;;;5074634;28;20219;-73
2023/12/08 02:13:43;;;;;;;2.88;1.25;;;39.50;12.90;;;;;;5075050;28;20506;-72
2023/12/08 02:16:23;;;;;;;3.20;1.10;;;39.80;12.60;;;;;;5073995;28;20183;-73
2023/12/08 02:18:51;;;;;;;4.53;1.30;;;39.70;11.60;;;;;;5090891;28;20215;-73
2023/12/08 02:21:19;;;;;;;5.13;1.60;;;39.60;13.50;;;;;;5094820;28;20175;-72
2023/12/08 02:23:50;;;;;;;4.47;1.50;;;39.70;14.80;;;;;;5083030;28;20206;-72
2023/12/08 02:26:18;;;;;;;4.63;1.25;;;40.20;14.00;;;;;;5074278;28;20221;-76
2023/12/08 02:28:46;;;;;;;5.40;1.40;;;40.30;12.70;;;;;;5074284;28;20645;-74
2023/12/08 02:31:19;;;;;;;4.18;1.73;;;40.10;12.90;;;;;;5073935;28;20228;-74
2023/12/08 02:33:48;;;;;;;2.30;1.40;;;39.90;14.40;;;;;;5072878;28;20231;-73
2023/12/08 02:36:17;;;;;;;2.58;1.23;;;40.40;12.20;;;;;;5086391;28;20835;-74
2023/12/08 02:38:49;;;;;;;5.80;1.60;;;40.90;11.80;;;;;;5094572;28;20227;-74
2023/12/08 02:41:17;;;;;;;3.72;1.20;;;41.20;12.90;;;;;;5093509;28;20582;-73
2023/12/08 02:43:44;;;;;;;4.10;1.55;;;41.10;11.50;;;;;;5094001;28;20224;-73
2023/12/08 02:46:11;;;;;;;2.42;1.30;;;40.00;11.70;;;;;;5092983;28;20191;-75
2023/12/08 02:48:39;;;;;;;4.63;1.25;;;39.40;11.30;;;;;;5094218;28;20238;-71
2023/12/08 02:51:06;;;;;;;4.80;1.58;;;38.90;13.60;;;;;;5093993;28;20207;-72
2023/12/08 02:53:34;;;;;;;7.35;1.50;;;38.50;12.80;;;;;;5095626;28;20171;-72
2023/12/08 02:56:01;;;;;;;3.05;1.17;;;38.70;13.10;;;;;;5095073;28;20639;-75
2023/12/08 02:58:28;;;;;;;3.33;1.52;;;39.00;15.20;;;;;;5094129;28;20262;-74
2023/12/08 03:00:56;;;;;;;4.15;1.42;;;39.80;14.00;;;;;;5094104;28;20179;-72
2023/12/08 03:03:23;;;;;;;3.70;1.23;;;39.60;15.10;;;;;;5086873;28;20176;-74
2023/12/08 03:05:54;;;;;;;2.15;1.15;;;39.30;13.70;;;;;;5073057;28;20239;-70
2023/12/08 03:08:21;;;;;;;2.45;1.00;;;39.10;13.80;;;;;;5073548;28;20645;-74
2023/12/08 03:10:48;;;;;;;3.47;1.70;;;39.00;15.60;;;;;;5073919;28;20208;-74
2023/12/08 03:13:16;;;;;;;3.83;1.40;;;39.50;15.20;;;;;;5073252;28;20641;-73
2023/12/08 03:15:43;;;;;;;4.35;1.15;;;40.10;12.70;;;;;;5073811;28;20176;-74
2023/12/08 03:18:10;;;;;;;2.90;1.70;;;40.70;13.40;;;;;;5074135;28;20258;-75
2023/12/08 03:20:38;;;;;;;6.40;1.38;;;41.10;11.20;;;;;;5073821;28;20567;-73
2023/12/08 03:23:05;;;;;;;3.00;1.20;;;41.10;11.80;;;;;;5073159;28;20259;-75
2023/12/08 03:25:32;;;;;;;3.28;1.30;;;41.10;11.60;;;;;;5073199;28;20215;-75
2023/12/08 03:28:00;;;;;;;3.05;1.25;;;41.20;10.60;;;;;;5072943;28;20605;-73
2023/12/08 03:30:27;;;;;;;2.63;1.58;;;41.00;10.60;;;;;;5072886;28;20227;-74
2023/12/08 03:32:54;;;;;;;2.22;1.20;;;40.40;12.00;;;;;;5073114;28;20246;-74
2023/12/08 03:35:22;;;;;;;2.38;1.33;;;40.90;10.40;;;;;;5072980;28;20229;-73
2023/12/08 03:37:49;;;;;;;2.22;1.25;;;41.30;10.90;;;;;;5072961;28;20195;-74
2023/12/08 03:40:17;;;;;;;2.53;1.55;;;41.50;11.30;;;;;;5072781;28;20641;-72
2023/12/08 03:42:45;;;;;;;2.63;1.10;;;41.70;10.50;;;;;;5073039;28;20187;-74
2023/12/08 03:45:12;;;;;;;3.28;1.40;;;41.60;7.60;;;;;;5072390;28;20302;-75
2023/12/08 03:47:40;;;;;;;4.22;1.30;;;41.40;8.00;;;;;;5072958;28;20180;-75
2023/12/08 03:50:07;;;;;;;3.50;1.75;;;41.50;10.40;;;;;;5072306;28;20211;-77
2023/12/08 03:52:35;;;;;;;11.40;3.72;;;41.60;12.30;;;;;;5071728;28;20675;-76
2023/12/08 03:55:02;;;;;;;13.07;3.42;;;40.80;24.40;;;;;;5073395;28;20900;-76
2023/12/08 03:57:29;;;;;;;11.65;3.88;;;40.10;27.40;;;;;;5074620;28;20176;-72
2023/12/08 03:59:57;;;;;;;8.98;3.50;;;40.00;31.80;;;;;;5072229;28;20187;-74
2023/12/08 04:02:25;;;;;;;17.10;3.53;;;39.90;29.70;;;;;;5072591;28;20180;-74
2023/12/08 04:04:52;;;;;;;10.15;3.47;;;39.90;36.40;;;;;;5072781;28;20168;-77
2023/12/08 04:07:20;;;;;;;10.60;3.80;;;40.10;40.30;;;;;;5072004;28;20176;-74
2023/12/08 04:09:47;;;;;;;10.15;3.63;;;40.30;44.30;;;;;;5072206;28;20208;-73
2023/12/08 04:12:14;;;;;;;15.52;3.92;;;40.20;41.50;;;;;;5072180;28;20176;-74
2023/12/08 04:14:42;;;;;;;16.05;4.07;;;39.90;42.90;;;;;;5072273;28;20188;-73
2023/12/08 04:17:09;;;;;;;13.23;3.28;;;39.60;48.30;;;;;;5072383;28;20196;-75
2023/12/08 04:19:37;;;;;;;10.07;3.92;;;39.90;49.70;;;;;;5071015;28;20219;-73
2023/12/08 04:22:04;;;;;;;11.60;3.67;;;39.90;52.00;;;;;;5071248;28;20229;-74
2023/12/08 04:24:32;;;;;;;15.90;4.35;;;39.70;56.50;;;;;;5072315;28;20257;-73
2023/12/08 04:26:59;;;;;;;10.38;3.65;;;39.20;56.40;;;;;;5071829;28;20237;-73
2023/12/08 04:29:27;;;;;;;14.25;4.25;;;39.20;57.60;;;;;;5071221;28;20758;-75
2023/12/08 04:31:54;;;;;;;9.70;3.88;;;39.30;54.20;;;;;;5071469;28;20557;-74
2023/12/08 04:34:25;;;;;;;11.75;4.10;;;38.90;54.70;;;;;;5070031;28;20685;-76
2023/12/08 04:36:52;;;;;;;16.90;3.92;;;38.60;61.40;;;;;;5071480;28;20172;-73
2023/12/08 04:39:19;;;;;;;10.75;4.13;;;38.60;64.10;;;;;;5071774;28;20175;-74
2023/12/08 04:41:47;;;;;;;10.35;3.70;;;38.70;61.60;;;;;;5071694;28;20175;-73
2023/12/08 04:44:15;;;;;;;11.40;4.15;;;38.60;58.00;;;;;;5071525;28;20210;-73
2023/12/08 04:46:43;;;;;;;11.52;4.20;;;38.40;65.80;;;;;;5071773;28;20168;-72
2023/12/08 04:49:10;;;;;;;14.88;3.45;;;38.40;63.80;;;;;;5071316;28;20226;-74
2023/12/08 04:51:41;;;;;;;10.73;4.15;;;38.50;65.00;;;;;;5071002;28;20306;-73
2023/12/08 04:54:08;;;;;;;8.80;3.78;;;38.20;68.50;;;;;;5071435;28;20168;-72
2023/12/08 04:56:35;;;;;;;12.57;5.05;;;37.90;79.20;;;;;;5071793;28;20191;-73
2023/12/08 04:59:03;;;;;;;14.13;3.90;;;38.20;80.10;;;;;;5071346;28;20610;-74
2023/12/08 05:01:30;;;;;;;16.13;4.47;;;38.80;79.40;;;;;;5071075;28;20549;-73
2023/12/08 05:03:58;;;;;;;11.95;4.10;;;39.00;78.10;;;;;;5071286;28;20263;-73
2023/12/08 05:06:26;;;;;;;13.32;4.10;;;38.90;71.70;;;;;;5069323;28;20184;-73
2023/12/08 05:08:54;;;;;;;11.50;3.60;;;38.40;72.30;;;;;;5071679;28;20175;-72
2023/12/08 05:11:21;;;;;;;19.23;4.93;;;38.40;78.80;;;;;;5070856;28;20230;-74
2023/12/08 05:13:49;;;;;;;14.13;4.30;;;38.70;77.50;;;;;;5085670;28;20194;-73
2023/12/08 05:16:17;;;;;;;12.40;4.22;;;38.40;67.10;;;;;;5091441;28;20683;-73
2023/12/08 05:18:44;;;;;;;12.68;4.18;;;38.60;70.50;;;;;;5082140;28;20613;-74
2023/12/08 05:21:11;;;;;;;16.08;4.75;;;38.50;68.80;;;;;;5069831;28;20180;-73
2023/12/08 05:23:39;;;;;;;11.60;3.78;;;38.50;66.10;;;;;;5071045;28;20176;-73
2023/12/08 05:26:09;;;;;;;13.02;4.38;;;38.50;70.50;;;;;;5070037;28;20691;-74
2023/12/08 05:28:40;;;;;;;12.00;4.13;;;38.30;71.80;;;;;;5070857;28;20183;-74
2023/12/08 05:31:08;;;;;;;11.63;3.88;;;38.60;68.20;;;;;;5070139;28;20242;-72
2023/12/08 05:33:35;;;;;;;13.57;3.83;;;38.70;75.70;;;;;;5071280;28;20236;-73
2023/12/08 05:36:03;;;;;;;11.68;3.88;;;38.90;77.40;;;;;;5069447;28;20184;-72
2023/12/08 05:38:30;;;;;;;13.15;4.10;;;38.80;70.10;;;;;;5070283;28;20176;-77
2023/12/08 05:40:57;;;;;;;11.52;3.83;;;38.40;70.70;;;;;;5070913;28;20668;-75
2023/12/08 05:43:25;;;;;;;14.02;3.63;;;38.30;70.50;;;;;;5069405;28;20595;-74
2023/12/08 05:45:52;;;;;;;14.85;3.80;;;38.10;73.60;;;;;;5071175;28;20656;-75
2023/12/08 05:48:21;;;;;;;13.75;3.90;;;38.00;76.70;;;;;;5071423;28;20182;-73
2023/12/08 05:50:48;;;;;;;15.68;4.80;;;37.80;78.60;;;;;;5071011;28;20238;-75
2023/12/08 05:53:15;;;;;;;12.68;3.83;;;37.40;82.00;;;;;;5071029;28;20558;-73
2023/12/08 05:55:43;;;;;;;16.17;3.67;;;37.10;81.90;;;;;;5071140;28;20716;-73
2023/12/08 05:58:10;;;;;;;12.43;3.88;;;36.70;84.60;;;;;;5070592;28;20184;-73
2023/12/08 06:00:37;;;;;;;13.95;4.18;;;36.40;85.20;;;;;;5071301;28;20527;-74
2023/12/08 06:03:05;;;;;;;13.02;3.55;;;36.10;80.40;;;;;;5071302;28;20524;-74
2023/12/08 06:05:32;;;;;;;13.05;4.00;;;35.70;76.90;;;;;;5070389;28;20246;-74
2023/12/08 06:08:00;;;;;;;6.22;3.10;;;35.60;79.00;;;;;;5071138;28;20610;-73
2023/12/08 06:10:27;;;;;;;11.10;3.58;;;35.90;78.80;;;;;;5070378;28;20260;-75
2023/12/08 06:12:58;;;;;;;14.15;3.90;;;35.80;74.60;;;;;;5070407;28;20187;-74
2023/12/08 06:15:25;;;;;;;10.73;3.72;;;36.00;77.60;;;;;;5071014;28;20180;-75
2023/12/08 06:17:52;;;;;;;13.43;3.55;;;36.30;75.90;;;;;;5074548;28;20237;-74
2023/12/08 06:20:21;;;;;;;12.63;3.20;;;36.30;77.20;;;;;;5073976;28;20179;-74
2023/12/08 06:22:48;;;;;;;13.57;3.60;;;36.10;75.80;;;;;;5074498;28;20188;-72
2023/12/08 06:25:17;;;;;;;11.77;3.65;;;35.70;73.90;;;;;;5074400;28;20230;-74
2023/12/08 06:27:44;;;;;;;11.38;3.50;;;35.40;77.40;;;;;;5074032;28;20184;-73
2023/12/08 06:30:12;;;;;;;10.35;3.13;;;35.20;79.40;;;;;;5073668;28;20238;-74
2023/12/08 06:32:39;;;;;;;8.77;3.58;;;34.90;78.50;;;;;;5072117;28;20650;-74
2023/12/08 06:35:07;;;;;;;10.30;3.65;;;34.80;79.90;;;;;;5070606;28;20207;-73
2023/12/08 06:37:35;;;;;;;9.90;3.35;;;34.80;83.40;;;;;;5073511;28;20187;-72
2023/12/08 06:40:03;;;;;;;12.43;3.63;;;34.50;89.50;;;;;;5073325;28;20271;-74
2023/12/08 06:42:31;;;;;;;10.07;4.05;;;34.30;88.50;;;;;;5073558;28;20511;-74
2023/12/08 06:44:59;;;;;;;10.90;4.03;;;34.20;91.50;;;;;;5073446;28;20176;-74
2023/12/08 06:47:26;;;;;;;9.68;3.33;;;34.10;92.00;;;;;;5073642;28;20201;-74
2023/12/08 06:49:53;;;;;;;19.27;3.53;;;34.10;92.00;;;;;;5073484;28;20303;-75
2023/12/08 06:52:21;;;;;;;10.63;3.08;;;34.10;92.90;;;;;;5073835;28;20179;-74
2023/12/08 06:54:49;;;;;;;14.98;4.15;;;34.10;94.20;;;;;;5073657;28;20660;-73
2023/12/08 06:57:17;;;;;;;11.25;3.13;;;34.10;92.80;;;;;;5073866;28;20176;-72
2023/12/08 06:59:44;;;;;;;12.10;3.30;;;34.10;93.80;;;;;;5073076;28;20172;-73
2023/12/08 07:02:11;;;;;;;11.45;3.50;;;34.10;92.30;;;;;;5072977;28;20195;-74
2023/12/08 07:04:39;;;;;;;10.20;3.03;;;34.00;94.50;;;;;;5072677;28;20172;-73
2023/12/08 07:07:06;;;;;;;10.90;3.08;;;34.10;93.80;;;;;;5053629;28;20180;-74
2023/12/08 07:09:33;;;;;;;8.35;3.42;;;34.00;94.70;;;;;;5053364;28;20177;-75
2023/12/08 07:12:01;;;;;;;10.48;3.50;;;33.90;95.20;;;;;;5053236;28;20385;-74
2023/12/08 07:14:28;;;;;;;10.40;3.72;;;33.70;95.30;;;;;;5053584;28;20172;-74
2023/12/08 07:16:55;;;;;;;11.07;2.88;;;33.60;95.30;;;;;;5071356;28;20195;-73
2023/12/08 07:19:23;;;;;;;11.52;3.20;;;33.50;97.10;;;;;;5072198;28;20279;-74
2023/12/08 07:21:50;;;;;;;11.65;3.28;;;33.40;97.70;;;;;;5073147;28;20183;-73
2023/12/08 07:24:18;;;;;;;9.35;3.00;;;33.60;98.60;;;;;;5073250;28;20176;-73
2023/12/08 07:26:45;;;;;;;6.78;3.38;;;33.80;98.50;;;;;;5073194;28;20172;-74
2023/12/08 07:29:12;;;;;;;12.10;3.50;;;33.70;97.30;;;;;;5070206;28;20228;-73
2023/12/08 07:31:40;;;;;;;11.82;3.58;;;33.70;98.60;;;;;;5074618;28;20214;-73
2023/12/08 07:34:07;;;;;;;14.55;3.45;;;33.60;99.00;;;;;;5073368;28;20172;-72
2023/12/08 07:36:34;;;;;;;10.27;3.05;;;33.30;96.20;;;;;;5074549;28;20218;-73
2023/12/08 07:39:02;;;;;;;11.23;3.70;;;33.20;97.20;;;;;;5074619;28;20541;-74
2023/12/08 07:41:29;;;;;;;6.07;2.83;;;33.00;99.10;;;;;;5074571;28;20168;-74
2023/12/08 07:43:58;;;;;;;7.38;2.67;;;32.70;99.90;;;;;;5074447;28;20176;-73
2023/12/08 07:46:25;;;;;;;8.35;3.22;;;32.50;99.90;;;;;;5074549;28;20263;-73
2023/12/08 07:48:52;;;;;;;15.50;3.47;;;32.30;99.90;;;;;;5074281;28;20537;-73
2023/12/08 07:51:20;;;;;;;13.80;3.33;;;32.20;99.90;;;;;;5074095;28;20306;-73
2023/12/08 07:53:47;;;;;;;11.95;3.67;;;32.00;99.90;;;;;;5074341;28;20528;-73
2023/12/08 07:56:15;;;;;;;10.02;3.38;;;31.90;99.90;;;;;;5074192;28;20475;-74
2023/12/08 07:58:42;;;;;;;7.82;2.75;;;32.00;99.90;;;;;;5072958;28;20591;-74
2023/12/08 08:01:09;;;;;;;11.50;3.38;;;31.90;99.90;;;;;;5073814;28;20700;-72
2023/12/08 08:03:37;;;;;;;9.23;3.08;;;31.80;99.90;;;;;;5074298;28;20203;-73
2023/12/08 08:06:05;;;;;;;8.25;3.03;;;31.80;99.90;;;;;;5074171;28;20172;-72
2023/12/08 08:08:33;;;;;;;7.72;2.83;;;31.80;99.90;;;;;;5074352;28;20179;-73
2023/12/08 08:11:00;;;;;;;7.35;2.63;;;31.80;99.90;;;;;;5074581;28;20688;-73
2023/12/08 08:13:28;;;;;;;11.82;2.90;;;31.80;99.90;;;;;;5073964;28;20211;-74
2023/12/08 08:15:56;;;;;;;7.10;2.50;;;31.70;99.90;;;;;;5073391;28;20180;-73
2023/12/08 08:18:23;;;;;;;4.93;2.42;;;31.70;99.90;;;;;;5073858;28;20172;-72
2023/12/08 08:20:50;;;;;;;7.95;2.63;;;31.60;99.90;;;;;;5073841;28;20168;-74
2023/12/08 08:23:18;;;;;;;10.15;3.03;;;31.60;99.90;;;;;;5074151;28;20195;-73
2023/12/08 08:25:47;;;;;;;11.85;2.50;;;31.60;99.90;;;;;;5072366;28;20198;-72
2023/12/08 08:28:14;;;;;;;12.07;3.10;;;31.60;99.90;;;;;;5073641;28;20562;-73
2023/12/08 08:30:43;;;;;;;10.27;2.50;;;31.60;99.90;;;;;;5071794;28;20596;-72
2023/12/08 08:33:11;;;;;;;8.80;2.80;;;31.60;99.90;;;;;;5071908;28;20272;-73
2023/12/08 08:35:40;;;;;;;10.50;2.78;;;31.50;99.90;;;;;;5074172;28;20180;-73
2023/12/08 08:38:07;;;;;;;7.82;2.38;;;31.40;99.90;;;;;;5074395;28;20532;-74
2023/12/08 08:40:35;;;;;;;10.07;2.92;;;31.40;99.90;;;;;;5075019;28;20193;-73
2023/12/08 08:43:03;;;;;;;6.50;2.20;;;31.40;99.90;;;;;;5074923;28;20222;-72
2023/12/08 08:45:30;;;;;;;8.18;2.15;;;31.40;99.90;;;;;;5074400;28;20172;-72
2023/12/08 08:47:57;;;;;;;5.63;2.35;;;31.30;99.90;;;;;;5073557;28;20250;-73
2023/12/08 08:50:25;;;;;;;6.15;2.83;;;31.20;99.90;;;;;;5074145;28;20200;-73
2023/12/08 08:52:55;;;;;;;5.07;2.17;;;31.00;99.90;;;;;;5073424;28;20531;-74
2023/12/08 08:55:23;;;;;;;7.38;2.67;;;30.80;99.90;;;;;;5072603;28;20195;-74
2023/12/08 08:57:50;;;;;;;6.47;2.30;;;30.80;99.90;;;;;;5073681;28;20163;-74
2023/12/08 09:00:18;;;;;;;8.20;2.05;;;30.70;99.90;;;;;;5073765;28;20236;-74
2023/12/08 09:02:51;;;;;;;8.10;2.35;;;30.70;99.90;;;;;;5074038;28;20168;-73
2023/12/08 09:05:19;;;;;;;4.57;2.40;;;30.80;97.70;;;;;;5074162;28;20629;-74
2023/12/08 09:07:47;;;;;;;10.00;2.97;;;31.00;96.10;;;;;;5072410;28;20549;-74
2023/12/08 09:10:26;;;;;;;7.72;2.50;;;30.90;96.60;;;;;;5072190;28;20237;-75
2023/12/08 09:12:54;;;;;;;12.55;2.25;;;30.80;97.20;;;;;;5073718;28;20172;-74
2023/12/08 09:15:21;;;;;;;7.13;2.45;;;30.60;99.90;;;;;;5073343;28;20255;-74
2023/12/08 09:17:49;;;;;;;6.30;2.10;;;30.30;99.90;;;;;;5078122;28;20183;-73
2023/12/08 09:20:16;;;;;;;9.80;2.30;;;30.20;99.90;;;;;;5082047;28;20184;-73
2023/12/08 09:22:44;;;;;;;22.63;2.90;;;30.20;99.90;;;;;;5078891;28;20176;-74
2023/12/08 09:25:12;;;;;;;19.02;2.92;;;30.10;99.90;;;;;;5073006;28;20544;-74
2023/12/08 09:27:40;;;;;;;6.40;2.35;;;30.10;99.90;;;;;;5072446;28;20188;-75
2023/12/08 09:30:08;;;;;;;9.35;2.65;;;30.00;99.90;;;;;;5072789;28;20703;-74
2023/12/08 09:32:35;;;;;;;6.95;2.15;;;30.00;99.90;;;;;;5073090;28;20172;-74
2023/12/08 09:35:08;;;;;;;3.75;2.15;;;30.00;99.90;;;;;;5073250;28;20267;-75
2023/12/08 09:37:39;;;;;;;7.27;2.10;;;30.00;99.90;;;;;;5073218;28;20172;-74
2023/12/08 09:40:08;;;;;;;4.20;1.93;;;30.00;99.90;;;;;;5073028;28;20223;-73
2023/12/08 09:42:52;;;;;;;4.40;1.63;;;29.90;99.90;;;;;;5072714;28;20188;-75
2023/12/08 09:45:23;;;;;;;6.85;2.58;;;29.90;99.90;;;;;;5073159;28;20202;-75
2023/12/08 09:47:55;;;;;;;9.65;2.47;;;29.90;99.90;;;;;;5072910;28;20180;-73
2023/12/08 09:50:28;;;;;;;13.17;2.73;;;29.80;99.90;;;;;;5072744;28;20250;-74
2023/12/08 09:52:56;;;;;;;7.00;2.23;;;29.80;99.90;;;;;;5076951;28;20176;-74
2023/12/08 09:55:24;;;;;;;5.57;2.38;;;29.70;99.90;;;;;;5076648;28;20183;-74
2023/12/08 09:57:52;;;;;;;9.30;2.67;;;29.60;99.90;;;;;;5076639;28;20183;-73
2023/12/08 10:00:22;;;;;;;7.57;2.40;;;29.60;99.90;;;;;;5076951;28;20377;-73
2023/12/08 10:02:49;;;;;;;8.03;2.73;;;29.60;99.90;;;;;;5077203;28;20259;-74
2023/12/08 10:05:20;;;;;;;6.88;2.70;;;29.50;99.90;;;;;;5076492;28;20255;-74
2023/12/08 10:07:51;;;;;;;8.95;3.15;;;29.50;99.90;;;;;;5076680;28;20179;-75
2023/12/08 10:10:19;;;;;;;10.75;2.90;;;29.50;99.90;;;;;;5076292;28;20682;-74
2023/12/08 10:12:50;;;;;;;6.20;2.60;;;29.40;99.90;;;;;;5076312;28;20176;-74
2023/12/08 10:15:18;;;;;;;6.83;3.17;;;29.30;99.90;;;;;;5075043;28;20183;-74
2023/12/08 10:17:50;;;;;;;8.70;2.95;;;29.30;99.90;;;;;;5076245;28;20187;-73
2023/12/08 10:20:19;;;;;;;7.20;2.67;;;29.10;99.90;;;;;;5076278;28;20550;-74
2023/12/08 10:22:55;;;;;;;8.27;2.90;;;28.90;99.90;;;;;;5076328;28;20274;-74
2023/12/08 10:25:24;;;;;;;8.00;3.10;;;28.90;99.90;;;;;;5076025;28;20167;-75
2023/12/08 10:27:56;;;;;;;13.97;3.17;;;28.90;99.90;;;;;;5076126;28;20183;-74
2023/12/08 10:30:28;;;;;;;12.70;3.30;;;28.80;99.90;;;;;;5076257;28;20235;-74
2023/12/08 10:32:58;;;;;;;9.77;3.23;;;28.70;99.90;;;;;;5074819;28;20184;-74
2023/12/08 10:35:26;;;;;;;7.27;3.23;;;28.60;99.90;;;;;;5075922;28;20184;-74
2023/12/08 10:37:53;;;;;;;8.47;3.10;;;28.50;99.90;;;;;;5075715;28;20215;-74
2023/12/08 10:40:22;;;;;;;9.23;2.93;;;28.50;99.90;;;;;;5075669;28;20191;-75
2023/12/08 10:42:49;;;;;;;11.17;3.07;;;28.60;99.90;;;;;;5075805;28;20180;-73
2023/12/08 10:45:17;;;;;;;11.90;3.60;;;28.60;99.90;;;;;;5075948;28;20172;-74
2023/12/08 10:47:49;;;;;;;9.35;3.53;;;28.60;99.90;;;;;;5073921;28;20191;-74
2023/12/08 10:50:17;;;;;;;15.87;3.97;;;28.60;99.90;;;;;;5072486;28;20277;-74
2023/12/08 10:52:45;;;;;;;13.27;3.40;;;28.60;99.90;;;;;;5075962;28;20183;-74
2023/12/08 10:55:13;;;;;;;14.40;3.67;;;28.60;99.90;;;;;;5076221;28;20172;-74
2023/12/08 10:57:42;;;;;;;14.33;3.77;;;28.60;99.90;;;;;;5075701;28;20180;-73
2023/12/08 11:00:17;;;;;;;8.00;3.40;;;28.60;99.90;;;;;;5075479;28;20199;-74
2023/12/08 11:02:48;;;;;;;17.10;4.37;;;28.50;99.90;;;;;;5073056;28;20600;-74
2023/12/08 11:05:38;;;;;;;12.37;4.07;;;28.60;99.90;;;;;;5075022;28;20187;-72
2023/12/08 11:08:13;;;;;;;10.80;3.90;;;28.50;99.90;;;;;;5055518;28;20223;-74
2023/12/08 11:10:45;;;;;;;10.93;3.43;;;28.50;99.90;;;;;;5055153;28;20627;-74
2023/12/08 11:13:24;;;;;;;12.97;4.33;;;28.50;99.90;;;;;;5055276;28;20656;-74
2023/12/08 11:16:26;;;;;;;9.40;3.80;;;28.40;99.90;;;;;;5055363;28;20185;-75
2023/12/08 11:18:56;;;;;;;13.20;4.27;;;28.40;99.90;;;;;;5055196;28;20534;-73
2023/12/08 11:21:24;;;;;;;14.50;4.07;;;28.30;99.90;;;;;;5055025;28;20222;-73
2023/12/08 11:23:52;;;;;;;15.17;4.47;;;28.20;99.90;;;;;;5055088;28;20684;-72
2023/12/08 11:26:46;;;;;;;16.97;3.77;;;28.10;99.90;;;;;;5055188;28;20659;-74
2023/12/08 11:30:04;;;;;;;14.07;4.27;;;28.00;99.90;;;;;;5054560;28;20223;-74
2023/12/08 11:32:51;;;;;;;13.60;4.00;;;28.00;99.90;;;;;;5042551;28;20838;-74
2023/12/08 11:35:19;;;;;;;10.73;3.50;;;27.90;99.90;;;;;;5050960;28;20665;-74
2023/12/08 11:37:47;;;;;;;14.80;4.70;;;27.80;99.90;;;;;;5054603;28;20168;-74
2023/12/08 11:40:14;;;;;;;7.90;3.87;;;27.70;99.90;;;;;;5054881;28;20665;-74
2023/12/08 11:42:45;;;;;;;9.43;4.47;;;27.60;99.90;;;;;;5054627;28;20195;-73
2023/12/08 11:45:13;;;;;;;11.53;4.00;;;27.50;99.90;;;;;;5054774;28;20180;-74
2023/12/08 11:47:42;;;;;;;10.00;3.40;;;27.40;99.90;;;;;;5054641;28;20177;-73
2023/12/08 11:50:12;;;;;;;11.37;4.00;;;27.30;99.90;;;;;;5054478;28;20204;-72
2023/12/08 11:52:41;;;;;;;12.50;4.30;;;27.30;99.90;;;;;;5054454;28;20176;-72
2023/12/08 11:55:19;;;;;;;10.47;4.57;;;27.20;99.90;;;;;;5054774;28;20207;-73
2023/12/08 11:58:05;;;;;;;11.80;4.33;;;27.20;99.90;;;;;;5063112;28;20184;-74
2023/12/08 12:00:35;;;;;;;12.20;3.87;;;27.20;99.90;;;;;;5073286;28;20313;-73
2023/12/08 12:03:05;;;;;;;12.70;4.40;;;27.10;99.90;;;;;;5074964;28;20188;-73
2023/12/08 12:05:32;;;;;;;12.00;4.03;;;27.10;99.90;;;;;;5076330;28;20179;-73
2023/12/08 12:08:00;;;;;;;10.87;4.20;;;27.10;99.90;;;;;;5076810;28;20306;-72
2023/12/08 12:10:29;;;;;;;13.20;4.53;;;27.00;99.90;;;;;;5075593;28;20201;-73
2023/12/08 12:13:15;;;;;;;12.93;4.07;;;26.90;99.90;;;;;;5074586;28;20202;-73
2023/12/08 12:15:43;;;;;;;17.83;4.47;;;26.90;99.90;;;;;;5070963;28;20172;-73
2023/12/08 12:18:13;;;;;;;8.63;3.73;;;26.80;99.90;;;;;;5074884;28;20194;-72
2023/12/08 12:20:40;;;;;;;13.00;4.80;;;26.80;99.90;;;;;;5075182;28;20249;-73
2023/12/08 12:23:08;;;;;;;11.80;4.60;;;26.80;99.90;;;;;;5073524;28;20658;-73
2023/12/08 12:25:35;;;;;;;12.63;4.63;;;26.70;99.90;;;;;;5074428;28;20229;-73
2023/12/08 12:28:03;;;;;;;14.30;4.27;;;26.70;99.90;;;;;;5074700;28;20234;-73
2023/12/08 12:30:31;;;;;;;12.07;4.50;;;26.70;99.90;;;;;;5076352;28;20228;-74
2023/12/08 12:32:58;;;;;;;11.30;4.20;;;26.70;99.90;;;;;;5075700;28;20644;-73
2023/12/08 12:35:25;;;;;;;15.73;4.80;;;26.60;99.90;;;;;;5076386;28;20245;-74
2023/12/08 12:37:54;;;;;;;16.20;5.00;;;26.60;99.90;;;;;;5075738;28;20267;-74
2023/12/08 12:40:22;;;;;;;17.50;4.60;;;26.60;99.90;;;;;;5075572;28;20187;-75
2023/12/08 12:42:50;;;;;;;8.17;3.93;;;26.50;99.90;;;;;;5074921;28;20191;-73
2023/12/08 12:45:31;;;;;;;11.20;4.43;;;26.50;99.90;;;;;;5074937;28;20188;-73
2023/12/08 12:48:06;;;;;;;13.27;4.37;;;26.50;99.90;;;;;;5075779;28;20211;-74
2023/12/08 12:50:58;;;;;;;11.30;4.40;;;26.50;99.90;;;;;;5074482;28;20221;-74